CFE56D EGLC-LIRQ
Flight info
| Callsign | CFE56D |
|---|---|
| Flight time | N/A |
| Altitude | 23000 |
| Route | SOQQA M87 UMTUM L9 KONAN/N0453F370 UL607 REMBA M624 DIK N852 SUTAL DCT GTQ DCT POGOL DCT LASAT DCT DEVDI DCT RIPUS DCT RESIA DCT ADOSA/N0397F190 L612 ALBET M726 LUMAV Q58 BIKTU |
| Aircraft | E190/M-SDE2E3GHIJ1LORVWXY/SB1 |
Departure
| Time | N/A |
|---|---|
| Airport | London City Airport (EGLC) |
Arrival
| Time | 2026-05-05 12:13 |
|---|---|
| Airport | Florence Airport, Peretola (LIRQ) |
| Time | Latitude | Longitude | Altitude | Speed | Heading |
|---|---|---|---|---|---|
| 2026-05-05 10:28 | 51.12536 | 2.09058 | 30159 ft | 435 kts | 96° |
| 2026-05-05 10:28 | 51.12298 | 2.13838 | 30707 ft | 430 kts | 97° |
| 2026-05-05 10:28 | 51.12049 | 2.18592 | 30914 ft | 433 kts | 97° |
| 2026-05-05 10:28 | 51.11794 | 2.23379 | 31173 ft | 434 kts | 97° |
| 2026-05-05 10:29 | 51.11536 | 2.28178 | 31393 ft | 436 kts | 97° |
| 2026-05-05 10:29 | 51.11272 | 2.33027 | 31463 ft | 441 kts | 97° |
| 2026-05-05 10:29 | 51.11006 | 2.37897 | 31665 ft | 443 kts | 97° |
| 2026-05-05 10:29 | 51.10735 | 2.42794 | 31879 ft | 444 kts | 98° |
| 2026-05-05 10:30 | 51.10463 | 2.47688 | 32152 ft | 444 kts | 98° |
| 2026-05-05 10:30 | 51.10189 | 2.52594 | 32440 ft | 444 kts | 98° |
| 2026-05-05 10:30 | 51.09914 | 2.57474 | 32719 ft | 443 kts | 98° |
| 2026-05-05 10:30 | 51.09637 | 2.62354 | 33003 ft | 443 kts | 98° |
| 2026-05-05 10:31 | 51.09151 | 2.67163 | 33238 ft | 439 kts | 107° |
| 2026-05-05 10:31 | 51.08321 | 2.71827 | 33514 ft | 437 kts | 110° |
| 2026-05-05 10:31 | 51.07469 | 2.76463 | 33792 ft | 437 kts | 109° |
| 2026-05-05 10:31 | 51.06621 | 2.81102 | 34041 ft | 436 kts | 109° |
| 2026-05-05 10:32 | 51.05786 | 2.85678 | 34265 ft | 436 kts | 110° |
| 2026-05-05 10:32 | 51.04942 | 2.90301 | 34493 ft | 436 kts | 110° |
| 2026-05-05 10:32 | 51.04098 | 2.94921 | 34713 ft | 436 kts | 110° |
| 2026-05-05 10:32 | 51.03251 | 2.99554 | 34922 ft | 436 kts | 110° |
| 2026-05-05 10:33 | 51.02403 | 3.04182 | 35125 ft | 436 kts | 110° |
| 2026-05-05 10:33 | 51.01554 | 3.08805 | 35329 ft | 436 kts | 110° |
| 2026-05-05 10:33 | 51.00701 | 3.13437 | 35514 ft | 436 kts | 110° |
| 2026-05-05 10:33 | 50.99848 | 3.18062 | 35720 ft | 437 kts | 109° |
| 2026-05-05 10:34 | 50.98992 | 3.22690 | 35910 ft | 437 kts | 109° |
| 2026-05-05 10:34 | 50.98134 | 3.27316 | 36096 ft | 437 kts | 109° |
| 2026-05-05 10:34 | 50.97275 | 3.31940 | 36265 ft | 437 kts | 110° |
| 2026-05-05 10:34 | 50.96413 | 3.36561 | 36446 ft | 437 kts | 110° |
| 2026-05-05 10:35 | 50.95562 | 3.41114 | 36605 ft | 437 kts | 110° |
| 2026-05-05 10:35 | 50.94698 | 3.45734 | 36774 ft | 437 kts | 110° |
| 2026-05-05 10:35 | 50.93845 | 3.50293 | 37024 ft | 424 kts | 110° |
| 2026-05-05 10:35 | 50.93012 | 3.54726 | 36925 ft | 414 kts | 110° |
| 2026-05-05 10:36 | 50.91391 | 3.63349 | 36917 ft | 404 kts | 110° |
| 2026-05-05 10:36 | 50.89748 | 3.71885 | 36919 ft | 405 kts | 110° |
| 2026-05-05 10:37 | 50.88091 | 3.80427 | 36938 ft | 407 kts | 111° |
| 2026-05-05 10:37 | 50.86423 | 3.88999 | 36944 ft | 407 kts | 111° |
| 2026-05-05 10:38 | 50.84760 | 3.97516 | 36950 ft | 407 kts | 111° |
| 2026-05-05 10:38 | 50.83082 | 4.06074 | 36957 ft | 407 kts | 111° |
| 2026-05-05 10:39 | 50.81397 | 4.14631 | 36913 ft | 407 kts | 111° |
| 2026-05-05 10:39 | 50.79711 | 4.23164 | 36902 ft | 405 kts | 111° |
| 2026-05-05 10:40 | 50.78031 | 4.31626 | 36906 ft | 403 kts | 111° |
| 2026-05-05 10:40 | 50.76344 | 4.40077 | 36913 ft | 404 kts | 111° |
| 2026-05-05 10:41 | 50.74649 | 4.48534 | 36912 ft | 404 kts | 111° |
| 2026-05-05 10:41 | 50.72951 | 4.56983 | 36910 ft | 404 kts | 111° |
| 2026-05-05 10:42 | 50.70457 | 4.69684 | 36906 ft | 403 kts | 111° |
| 2026-05-05 10:43 | 50.68798 | 4.78214 | 36927 ft | 411 kts | 111° |
| 2026-05-05 10:43 | 50.67106 | 4.86866 | 36906 ft | 419 kts | 112° |
| 2026-05-05 10:43 | 50.65970 | 4.91079 | 36918 ft | 415 kts | 126° |
| 2026-05-05 10:44 | 50.64181 | 4.94583 | 36973 ft | 409 kts | 139° |
| 2026-05-05 10:44 | 50.60078 | 5.00963 | 36902 ft | 419 kts | 139° |
| 2026-05-05 10:45 | 50.55876 | 5.07471 | 36890 ft | 428 kts | 139° |
| 2026-05-05 10:45 | 50.51604 | 5.14084 | 36892 ft | 433 kts | 139° |
| 2026-05-05 10:46 | 50.47277 | 5.20762 | 36868 ft | 439 kts | 139° |
| 2026-05-05 10:46 | 50.42918 | 5.27481 | 36881 ft | 440 kts | 139° |
| 2026-05-05 10:47 | 50.38550 | 5.34193 | 36877 ft | 440 kts | 140° |
| 2026-05-05 10:47 | 50.34175 | 5.40897 | 36861 ft | 440 kts | 140° |
| 2026-05-05 10:48 | 50.29801 | 5.47584 | 36860 ft | 440 kts | 140° |
| 2026-05-05 10:48 | 50.25440 | 5.54237 | 36859 ft | 436 kts | 140° |
| 2026-05-05 10:49 | 50.21094 | 5.60840 | 36869 ft | 436 kts | 140° |
| 2026-05-05 10:49 | 50.16771 | 5.67394 | 36862 ft | 436 kts | 140° |
| 2026-05-05 10:50 | 50.12387 | 5.74027 | 36842 ft | 436 kts | 140° |
| 2026-05-05 10:50 | 50.08060 | 5.80548 | 36854 ft | 436 kts | 140° |
| 2026-05-05 10:51 | 50.03670 | 5.87048 | 36855 ft | 435 kts | 140° |
| 2026-05-05 10:51 | 49.99280 | 5.93508 | 36843 ft | 434 kts | 140° |
| 2026-05-05 10:52 | 49.94904 | 5.99946 | 36853 ft | 433 kts | 140° |
| 2026-05-05 10:52 | 49.90554 | 6.06418 | 36853 ft | 432 kts | 140° |
| 2026-05-05 10:53 | 49.86120 | 6.12663 | 36865 ft | 426 kts | 150° |
| 2026-05-05 10:53 | 49.80872 | 6.16557 | 36864 ft | 421 kts | 159° |
| 2026-05-05 10:54 | 49.75507 | 6.20224 | 36857 ft | 422 kts | 159° |
| 2026-05-05 10:54 | 49.70135 | 6.23886 | 36857 ft | 422 kts | 159° |
| 2026-05-05 10:55 | 49.64748 | 6.27547 | 36855 ft | 422 kts | 159° |
| 2026-05-05 10:55 | 49.59343 | 6.31097 | 36854 ft | 421 kts | 160° |
| 2026-05-05 10:56 | 49.53934 | 6.34570 | 36855 ft | 421 kts | 160° |
| 2026-05-05 10:56 | 49.48527 | 6.38040 | 36855 ft | 421 kts | 160° |
| 2026-05-05 10:57 | 49.43144 | 6.41588 | 36855 ft | 421 kts | 159° |
| 2026-05-05 10:57 | 49.37812 | 6.45212 | 36868 ft | 421 kts | 159° |
| 2026-05-05 10:58 | 49.32429 | 6.48853 | 36875 ft | 424 kts | 159° |
| 2026-05-05 10:58 | 49.27028 | 6.52506 | 36900 ft | 424 kts | 159° |
| 2026-05-05 10:59 | 49.21620 | 6.56134 | 36884 ft | 423 kts | 159° |
| 2026-05-05 10:59 | 49.16216 | 6.59753 | 36858 ft | 424 kts | 159° |
| 2026-05-05 11:00 | 49.11736 | 6.62747 | 36870 ft | 423 kts | 159° |
| 2026-05-05 11:00 | 49.05448 | 6.66941 | 36879 ft | 422 kts | 159° |
| 2026-05-05 11:01 | 49.00974 | 6.69918 | 36871 ft | 421 kts | 160° |
| 2026-05-05 11:01 | 48.97250 | 6.71306 | 36893 ft | 415 kts | 180° |
| 2026-05-05 11:01 | 48.94368 | 6.71286 | 36916 ft | 414 kts | 182° |
| 2026-05-05 11:02 | 48.89533 | 6.71136 | 36878 ft | 415 kts | 182° |
| 2026-05-05 11:02 | 48.83744 | 6.70952 | 36872 ft | 416 kts | 182° |
| 2026-05-05 11:03 | 48.77954 | 6.70764 | 36865 ft | 416 kts | 182° |
| 2026-05-05 11:03 | 48.72193 | 6.70574 | 36881 ft | 416 kts | 182° |
| 2026-05-05 11:04 | 48.66396 | 6.70381 | 36886 ft | 417 kts | 182° |
| 2026-05-05 11:04 | 48.60595 | 6.70189 | 36871 ft | 417 kts | 182° |
| 2026-05-05 11:05 | 48.54777 | 6.69997 | 36883 ft | 418 kts | 182° |
| 2026-05-05 11:05 | 48.48951 | 6.69803 | 36874 ft | 418 kts | 182° |
| 2026-05-05 11:06 | 48.43133 | 6.69611 | 36881 ft | 419 kts | 182° |
| 2026-05-05 11:06 | 48.37339 | 6.69400 | 36872 ft | 419 kts | 182° |
| 2026-05-05 11:07 | 48.31510 | 6.69112 | 36880 ft | 419 kts | 182° |
| 2026-05-05 11:07 | 48.25676 | 6.68831 | 36878 ft | 420 kts | 182° |
| 2026-05-05 11:08 | 48.19829 | 6.68722 | 36880 ft | 421 kts | 174° |
| 2026-05-05 11:08 | 48.16998 | 6.69836 | 36892 ft | 424 kts | 158° |
| 2026-05-05 11:08 | 48.14487 | 6.72163 | 36903 ft | 429 kts | 141° |
| 2026-05-05 11:08 | 48.12486 | 6.75509 | 36991 ft | 433 kts | 130° |
| 2026-05-05 11:09 | 48.10700 | 6.79174 | 36856 ft | 437 kts | 130° |
| 2026-05-05 11:09 | 48.07130 | 6.86557 | 36870 ft | 439 kts | 129° |
| 2026-05-05 11:10 | 48.03554 | 6.93937 | 36839 ft | 438 kts | 129° |
| 2026-05-05 11:10 | 48.00002 | 7.01276 | 36875 ft | 439 kts | 129° |
| 2026-05-05 11:11 | 47.96409 | 7.08678 | 36874 ft | 440 kts | 129° |
| 2026-05-05 11:11 | 47.92807 | 7.16077 | 36874 ft | 440 kts | 129° |
| 2026-05-05 11:12 | 47.89198 | 7.23466 | 36906 ft | 440 kts | 129° |
| 2026-05-05 11:12 | 47.85588 | 7.30842 | 36872 ft | 440 kts | 129° |
| 2026-05-05 11:13 | 47.81974 | 7.38204 | 36883 ft | 441 kts | 129° |
| 2026-05-05 11:13 | 47.78349 | 7.45572 | 36877 ft | 441 kts | 129° |
| 2026-05-05 11:14 | 47.74736 | 7.52899 | 36881 ft | 442 kts | 130° |
| 2026-05-05 11:14 | 47.71092 | 7.60274 | 36889 ft | 442 kts | 130° |
| 2026-05-05 11:15 | 47.67449 | 7.67635 | 36884 ft | 443 kts | 130° |
| 2026-05-05 11:15 | 47.63790 | 7.75010 | 36884 ft | 444 kts | 130° |
| 2026-05-05 11:16 | 47.60145 | 7.82339 | 36886 ft | 444 kts | 130° |
| 2026-05-05 11:16 | 47.56475 | 7.89699 | 36889 ft | 444 kts | 130° |
| 2026-05-05 11:17 | 47.52798 | 7.97055 | 36885 ft | 444 kts | 130° |
| 2026-05-05 11:17 | 47.49109 | 8.04413 | 36887 ft | 444 kts | 130° |
| 2026-05-05 11:18 | 47.45419 | 8.11753 | 36889 ft | 445 kts | 130° |
| 2026-05-05 11:18 | 47.41720 | 8.19092 | 36899 ft | 446 kts | 131° |
| 2026-05-05 11:19 | 47.38029 | 8.26393 | 36898 ft | 446 kts | 131° |
| 2026-05-05 11:19 | 47.34316 | 8.33727 | 36898 ft | 445 kts | 131° |
| 2026-05-05 11:20 | 47.30605 | 8.41035 | 36874 ft | 446 kts | 131° |
| 2026-05-05 11:20 | 47.26886 | 8.48335 | 36897 ft | 446 kts | 131° |
| 2026-05-05 11:21 | 47.23198 | 8.55698 | 36892 ft | 447 kts | 130° |
| 2026-05-05 11:21 | 47.19540 | 8.63112 | 36891 ft | 449 kts | 130° |
| 2026-05-05 11:22 | 47.15869 | 8.70523 | 36900 ft | 447 kts | 130° |
| 2026-05-05 11:22 | 47.12221 | 8.77866 | 36892 ft | 447 kts | 130° |
| 2026-05-05 11:23 | 47.08544 | 8.85244 | 36902 ft | 448 kts | 130° |
| 2026-05-05 11:23 | 47.04857 | 8.92623 | 36893 ft | 448 kts | 130° |
| 2026-05-05 11:24 | 47.01163 | 8.99996 | 36897 ft | 448 kts | 131° |
| 2026-05-05 11:24 | 46.97467 | 9.07354 | 36918 ft | 448 kts | 130° |
| 2026-05-05 11:25 | 46.93771 | 9.14689 | 36889 ft | 447 kts | 130° |
| 2026-05-05 11:25 | 46.90097 | 9.21963 | 36908 ft | 448 kts | 131° |
| 2026-05-05 11:26 | 46.86383 | 9.29293 | 36920 ft | 449 kts | 131° |
| 2026-05-05 11:26 | 46.82659 | 9.36634 | 36920 ft | 451 kts | 131° |
| 2026-05-05 11:27 | 46.78925 | 9.43972 | 36912 ft | 450 kts | 131° |
| 2026-05-05 11:27 | 46.75182 | 9.51307 | 36936 ft | 451 kts | 131° |
| 2026-05-05 11:28 | 46.71429 | 9.58657 | 36938 ft | 453 kts | 131° |
| 2026-05-05 11:28 | 46.67657 | 9.66018 | 36963 ft | 454 kts | 131° |
| 2026-05-05 11:29 | 46.63893 | 9.73345 | 36980 ft | 448 kts | 131° |
| 2026-05-05 11:29 | 46.60371 | 9.80182 | 36978 ft | 452 kts | 131° |
| 2026-05-05 11:30 | 46.56583 | 9.87493 | 37002 ft | 454 kts | 131° |
| 2026-05-05 11:30 | 46.52782 | 9.94865 | 37001 ft | 457 kts | 131° |
| 2026-05-05 11:31 | 46.48948 | 10.02284 | 36988 ft | 459 kts | 132° |
| 2026-05-05 11:31 | 46.46793 | 10.05628 | 37033 ft | 451 kts | 143° |
| 2026-05-05 11:31 | 46.44387 | 10.08532 | 37012 ft | 449 kts | 146° |
| 2026-05-05 11:32 | 46.39544 | 10.14287 | 36984 ft | 450 kts | 145° |
| 2026-05-05 11:32 | 46.34709 | 10.20063 | 36994 ft | 451 kts | 145° |
| 2026-05-05 11:33 | 46.29867 | 10.25848 | 36991 ft | 452 kts | 145° |
| 2026-05-05 11:33 | 46.25049 | 10.31603 | 37016 ft | 452 kts | 145° |
| 2026-05-05 11:34 | 46.20190 | 10.37394 | 37017 ft | 453 kts | 145° |
| 2026-05-05 11:34 | 46.15316 | 10.43192 | 37020 ft | 454 kts | 145° |
| 2026-05-05 11:35 | 46.10447 | 10.48974 | 37019 ft | 454 kts | 145° |
| 2026-05-05 11:35 | 46.05561 | 10.54759 | 37008 ft | 455 kts | 145° |
| 2026-05-05 11:36 | 46.00666 | 10.60542 | 37017 ft | 454 kts | 145° |
| 2026-05-05 11:36 | 45.95772 | 10.66312 | 37011 ft | 455 kts | 145° |
| 2026-05-05 11:37 | 45.90911 | 10.72033 | 37013 ft | 455 kts | 145° |
| 2026-05-05 11:37 | 45.85999 | 10.77793 | 37013 ft | 456 kts | 145° |
| 2026-05-05 11:38 | 45.81084 | 10.83548 | 37019 ft | 456 kts | 145° |
| 2026-05-05 11:38 | 45.76164 | 10.89295 | 37014 ft | 456 kts | 145° |
| 2026-05-05 11:39 | 45.71251 | 10.95020 | 37024 ft | 456 kts | 145° |
| 2026-05-05 11:39 | 45.66322 | 11.00755 | 37018 ft | 458 kts | 146° |
| 2026-05-05 11:39 | 45.64036 | 11.03951 | 37054 ft | 465 kts | 131° |
| 2026-05-05 11:40 | 45.62198 | 11.07692 | 37060 ft | 468 kts | 127° |
| 2026-05-05 11:40 | 45.58620 | 11.15480 | 37002 ft | 469 kts | 127° |
| 2026-05-05 11:41 | 45.55104 | 11.23337 | 37012 ft | 471 kts | 126° |
| 2026-05-05 11:41 | 45.51561 | 11.31220 | 36985 ft | 474 kts | 126° |
| 2026-05-05 11:42 | 45.47992 | 11.39122 | 37003 ft | 474 kts | 127° |
| 2026-05-05 11:42 | 45.44337 | 11.46910 | 37016 ft | 468 kts | 135° |
| 2026-05-05 11:42 | 45.41912 | 11.49882 | 37025 ft | 454 kts | 156° |
| 2026-05-05 11:43 | 45.39020 | 11.51414 | 37065 ft | 438 kts | 176° |
| 2026-05-05 11:43 | 45.32995 | 11.52466 | 36981 ft | 437 kts | 178° |
| 2026-05-05 11:44 | 45.26996 | 11.53508 | 37013 ft | 437 kts | 178° |
| 2026-05-05 11:44 | 45.20944 | 11.54591 | 36994 ft | 439 kts | 178° |
| 2026-05-05 11:45 | 45.14872 | 11.55694 | 36977 ft | 440 kts | 178° |
| 2026-05-05 11:45 | 45.08803 | 11.56800 | 36964 ft | 440 kts | 178° |
| 2026-05-05 11:46 | 45.02728 | 11.57908 | 36978 ft | 440 kts | 178° |
| 2026-05-05 11:46 | 44.99694 | 11.58470 | 36508 ft | 438 kts | 177° |
| 2026-05-05 11:46 | 44.96720 | 11.59034 | 36304 ft | 427 kts | 178° |
| 2026-05-05 11:46 | 44.93762 | 11.59581 | 35601 ft | 430 kts | 178° |
| 2026-05-05 11:47 | 44.90814 | 11.60126 | 35104 ft | 426 kts | 178° |
| 2026-05-05 11:47 | 44.87867 | 11.60660 | 34508 ft | 426 kts | 178° |
| 2026-05-05 11:47 | 44.84936 | 11.61183 | 33933 ft | 425 kts | 179° |
| 2026-05-05 11:47 | 44.82004 | 11.61645 | 33365 ft | 419 kts | 184° |
| 2026-05-05 11:48 | 44.76218 | 11.61265 | 32279 ft | 417 kts | 189° |
| 2026-05-05 11:48 | 44.73310 | 11.60983 | 31696 ft | 420 kts | 189° |
| 2026-05-05 11:48 | 44.70385 | 11.60699 | 31155 ft | 422 kts | 188° |
| 2026-05-05 11:49 | 44.67449 | 11.60416 | 30585 ft | 424 kts | 188° |
| 2026-05-05 11:49 | 44.64506 | 11.60131 | 30017 ft | 425 kts | 188° |
| 2026-05-05 11:49 | 44.61549 | 11.59847 | 29454 ft | 425 kts | 188° |
| 2026-05-05 11:49 | 44.58592 | 11.59563 | 28876 ft | 425 kts | 188° |
| 2026-05-05 11:50 | 44.55645 | 11.59281 | 28326 ft | 423 kts | 188° |
| 2026-05-05 11:50 | 44.53708 | 11.59095 | 27948 ft | 420 kts | 188° |
| 2026-05-05 11:50 | 44.49866 | 11.58729 | 27215 ft | 415 kts | 188° |
| 2026-05-05 11:50 | 44.47005 | 11.58455 | 26673 ft | 411 kts | 188° |
| 2026-05-05 11:51 | 44.44162 | 11.58184 | 26134 ft | 407 kts | 187° |
| 2026-05-05 11:51 | 44.41347 | 11.57914 | 25576 ft | 404 kts | 187° |
| 2026-05-05 11:51 | 44.38551 | 11.57649 | 25063 ft | 401 kts | 187° |
| 2026-05-05 11:51 | 44.35775 | 11.57387 | 24514 ft | 399 kts | 187° |
| 2026-05-05 11:52 | 44.33013 | 11.57125 | 23992 ft | 396 kts | 187° |
| 2026-05-05 11:52 | 44.31158 | 11.56948 | 23639 ft | 395 kts | 187° |
| 2026-05-05 11:52 | 44.27552 | 11.56607 | 22931 ft | 389 kts | 187° |
| 2026-05-05 11:52 | 44.25737 | 11.56434 | 22600 ft | 386 kts | 187° |
| 2026-05-05 11:53 | 44.23098 | 11.56155 | 22097 ft | 384 kts | 188° |
| 2026-05-05 11:53 | 44.20444 | 11.55875 | 21568 ft | 381 kts | 187° |
| 2026-05-05 11:53 | 44.17810 | 11.55598 | 21081 ft | 378 kts | 188° |
| 2026-05-05 11:53 | 44.15197 | 11.55325 | 20577 ft | 375 kts | 188° |
| 2026-05-05 11:54 | 44.12599 | 11.55078 | 20064 ft | 372 kts | 187° |
| 2026-05-05 11:54 | 44.10022 | 11.54837 | 19577 ft | 369 kts | 187° |
| 2026-05-05 11:54 | 44.07482 | 11.54601 | 19089 ft | 362 kts | 187° |
| 2026-05-05 11:54 | 44.05002 | 11.54365 | 18623 ft | 353 kts | 188° |
| 2026-05-05 11:55 | 44.02574 | 11.54132 | 18203 ft | 345 kts | 188° |
| 2026-05-05 11:55 | 44.00273 | 11.53665 | 18065 ft | 322 kts | 203° |
| 2026-05-05 11:55 | 43.98363 | 11.52290 | 18031 ft | 302 kts | 214° |
| 2026-05-05 11:55 | 43.96597 | 11.50777 | 17980 ft | 295 kts | 214° |
| 2026-05-05 11:56 | 43.94844 | 11.49286 | 17983 ft | 296 kts | 214° |
| 2026-05-05 11:56 | 43.93076 | 11.47777 | 17994 ft | 299 kts | 214° |
| 2026-05-05 11:56 | 43.91301 | 11.46258 | 17997 ft | 300 kts | 214° |
| 2026-05-05 11:56 | 43.89519 | 11.44736 | 17994 ft | 301 kts | 214° |
| 2026-05-05 11:57 | 43.87758 | 11.43231 | 17996 ft | 301 kts | 214° |
| 2026-05-05 11:57 | 43.85973 | 11.41710 | 17988 ft | 300 kts | 214° |
| 2026-05-05 11:57 | 43.84192 | 11.40194 | 18000 ft | 300 kts | 214° |
| 2026-05-05 11:57 | 43.82420 | 11.38681 | 17998 ft | 299 kts | 214° |
| 2026-05-05 11:58 | 43.80644 | 11.37172 | 17996 ft | 299 kts | 214° |
| 2026-05-05 11:58 | 43.78874 | 11.35661 | 17997 ft | 299 kts | 214° |
| 2026-05-05 11:58 | 43.77107 | 11.34149 | 17942 ft | 300 kts | 214° |
| 2026-05-05 11:58 | 43.75405 | 11.32452 | 17604 ft | 298 kts | 227° |
| 2026-05-05 11:59 | 43.74007 | 11.30373 | 17478 ft | 295 kts | 229° |
| 2026-05-05 11:59 | 43.72637 | 11.28252 | 17106 ft | 297 kts | 229° |
| 2026-05-05 11:59 | 43.71269 | 11.26148 | 16788 ft | 293 kts | 229° |
| 2026-05-05 11:59 | 43.69909 | 11.24056 | 16413 ft | 290 kts | 229° |
| 2026-05-05 12:00 | 43.68563 | 11.21989 | 16076 ft | 287 kts | 229° |
| 2026-05-05 12:00 | 43.67248 | 11.19966 | 15628 ft | 278 kts | 229° |
| 2026-05-05 12:00 | 43.65988 | 11.18025 | 15291 ft | 265 kts | 229° |
| 2026-05-05 12:00 | 43.64778 | 11.16163 | 14954 ft | 255 kts | 229° |
| 2026-05-05 12:01 | 43.63615 | 11.14377 | 14612 ft | 246 kts | 229° |
| 2026-05-05 12:01 | 43.62491 | 11.12662 | 14302 ft | 237 kts | 229° |
| 2026-05-05 12:01 | 43.61414 | 11.11021 | 14000 ft | 231 kts | 229° |
| 2026-05-05 12:01 | 43.60346 | 11.09392 | 13700 ft | 227 kts | 229° |
| 2026-05-05 12:02 | 43.59284 | 11.07772 | 13435 ft | 228 kts | 229° |
| 2026-05-05 12:02 | 43.58213 | 11.06143 | 13097 ft | 230 kts | 229° |
| 2026-05-05 12:02 | 43.57139 | 11.04486 | 12633 ft | 233 kts | 230° |
| 2026-05-05 12:02 | 43.56060 | 11.02826 | 12193 ft | 231 kts | 230° |
| 2026-05-05 12:03 | 43.54995 | 11.01190 | 11756 ft | 228 kts | 230° |
| 2026-05-05 12:03 | 43.53933 | 10.99557 | 11238 ft | 229 kts | 230° |
| 2026-05-05 12:03 | 43.52867 | 10.97919 | 10752 ft | 230 kts | 230° |
| 2026-05-05 12:03 | 43.51798 | 10.96283 | 10271 ft | 230 kts | 230° |
| 2026-05-05 12:04 | 43.50720 | 10.94639 | 9793 ft | 232 kts | 230° |
| 2026-05-05 12:04 | 43.49635 | 10.92967 | 9266 ft | 236 kts | 233° |
| 2026-05-05 12:04 | 43.48962 | 10.90927 | 8747 ft | 239 kts | 263° |
| 2026-05-05 12:04 | 43.49249 | 10.88694 | 8224 ft | 242 kts | 296° |
| 2026-05-05 12:05 | 43.50371 | 10.86965 | 7730 ft | 244 kts | 314° |
| 2026-05-05 12:05 | 43.51624 | 10.85406 | 7247 ft | 242 kts | 312° |
| 2026-05-05 12:05 | 43.52854 | 10.83831 | 6754 ft | 240 kts | 313° |
| 2026-05-05 12:05 | 43.54135 | 10.82383 | 6246 ft | 240 kts | 328° |
| 2026-05-05 12:06 | 43.55765 | 10.81953 | 5719 ft | 245 kts | 6° |
| 2026-05-05 12:06 | 43.57277 | 10.82928 | 5218 ft | 247 kts | 43° |
| 2026-05-05 12:06 | 43.58219 | 10.84866 | 4723 ft | 243 kts | 63° |
| 2026-05-05 12:06 | 43.59097 | 10.86840 | 4231 ft | 241 kts | 50° |
| 2026-05-05 12:07 | 43.60232 | 10.88443 | 4227 ft | 218 kts | 43° |
| 2026-05-05 12:07 | 43.61178 | 10.89861 | 5098 ft | 200 kts | 49° |
| 2026-05-05 12:07 | 43.62148 | 10.91473 | 4536 ft | 230 kts | 50° |
| 2026-05-05 12:07 | 43.63241 | 10.93133 | 4260 ft | 220 kts | 43° |
| 2026-05-05 12:08 | 43.64267 | 10.94643 | 4033 ft | 225 kts | 51° |
| 2026-05-05 12:08 | 43.65220 | 10.96292 | 3948 ft | 210 kts | 50° |
| 2026-05-05 12:08 | 43.66153 | 10.97862 | 3625 ft | 211 kts | 51° |
| 2026-05-05 12:08 | 43.67086 | 10.99370 | 3537 ft | 197 kts | 41° |
| 2026-05-05 12:09 | 43.68105 | 11.00563 | 3699 ft | 197 kts | 41° |
| 2026-05-05 12:09 | 43.69105 | 11.01913 | 3502 ft | 202 kts | 45° |
| 2026-05-05 12:09 | 43.70071 | 11.03318 | 3271 ft | 201 kts | 47° |
| 2026-05-05 12:09 | 43.71003 | 11.04749 | 3056 ft | 198 kts | 48° |
| 2026-05-05 12:10 | 43.71899 | 11.06177 | 2895 ft | 195 kts | 50° |
| 2026-05-05 12:10 | 43.72740 | 11.07626 | 2808 ft | 193 kts | 51° |
| 2026-05-05 12:10 | 43.73589 | 11.09054 | 2580 ft | 189 kts | 50° |
| 2026-05-05 12:10 | 43.74437 | 11.10392 | 2242 ft | 184 kts | 47° |
| 2026-05-05 12:11 | 43.75294 | 11.11639 | 1976 ft | 172 kts | 45° |
| 2026-05-05 12:11 | 43.76059 | 11.12785 | 1763 ft | 156 kts | 47° |
| 2026-05-05 12:11 | 43.76752 | 11.13849 | 1557 ft | 148 kts | 47° |
| 2026-05-05 12:11 | 43.77430 | 11.14938 | 1280 ft | 146 kts | 50° |
| 2026-05-05 12:12 | 43.78072 | 11.15991 | 998 ft | 138 kts | 48° |
| 2026-05-05 12:12 | 43.78702 | 11.16968 | 701 ft | 134 kts | 47° |
| 2026-05-05 12:12 | 43.79315 | 11.17904 | 518 ft | 128 kts | 45° |
| 2026-05-05 12:12 | 43.79916 | 11.18808 | 354 ft | 128 kts | 45° |
| 2026-05-05 12:13 | 43.80513 | 11.19754 | 168 ft | 131 kts | 44° |
| 2026-05-05 12:13 | 43.81061 | 11.20592 | 126 ft | 92 kts | 48° |
| 2026-05-05 12:13 | 43.81367 | 11.21063 | 129 ft | 39 kts | 47° |
| 2026-05-05 12:13 | 43.81495 | 11.21261 | 129 ft | 16 kts | 53° |
| 2026-05-05 12:14 | 43.81462 | 11.21359 | 137 ft | 12 kts | 160° |
| 2026-05-05 12:14 | 43.81398 | 11.21385 | 143 ft | 8 kts | 170° |
| 2026-05-05 12:14 | 43.81346 | 11.21357 | 144 ft | 11 kts | 226° |
| 2026-05-05 12:14 | 43.81277 | 11.21252 | 142 ft | 19 kts | 229° |
| 2026-05-05 12:15 | 43.81262 | 11.21056 | 135 ft | 25 kts | 273° |
| 2026-05-05 12:15 | 43.81205 | 11.20819 | 129 ft | 29 kts | 229° |
| 2026-05-05 12:15 | 43.81067 | 11.20601 | 126 ft | 31 kts | 227° |
| 2026-05-05 12:15 | 43.80919 | 11.20380 | 127 ft | 31 kts | 227° |
| 2026-05-05 12:16 | 43.80778 | 11.20157 | 131 ft | 30 kts | 228° |
| 2026-05-05 12:16 | 43.80641 | 11.20019 | 130 ft | 20 kts | 194° |
| 2026-05-05 12:16 | 43.80518 | 11.19980 | 132 ft | 13 kts | 192° |
| 2026-05-05 12:16 | 43.80433 | 11.19956 | 131 ft | 13 kts | 183° |
| 2026-05-05 12:17 | 43.80356 | 11.20031 | 127 ft | 17 kts | 131° |
| 2026-05-05 12:17 | 43.80325 | 11.20085 | 121 ft | 0 kts | 129° |
| 2026-05-05 12:17 | 43.80324 | 11.20086 | 120 ft | 0 kts | 129° |
| 2026-05-05 12:35 | 43.80731 | 11.19701 | 127 ft | 0 kts | 129° |
| 2026-05-05 12:36 | 43.80820 | 11.19667 | 121 ft | 0 kts | 344° |